Аэропорт: Орск. Орск

ICAO: UWOR

METAR:
Информация по данной станции не доступна
METAR:
2021-10-22 22:52:00
TAF UWOR 222252Z 2300/2309 23009G15MPS 9999 BKN016CB TX14/2309Z TN06/2303Z TEMPO 2300/2309 22010G19MPS